createdAt,value
2019-04-11T00:00:44.393Z,10.00
2019-04-11T00:03:13.335Z,10.10
2019-04-11T00:05:43.332Z,10.00
2019-04-11T00:08:12.203Z,9.70
2019-04-11T00:10:41.670Z,9.90
2019-04-11T00:13:20.280Z,9.90
2019-04-11T00:15:40.882Z,9.90
2019-04-11T00:18:10.305Z,9.80
2019-04-11T00:20:40.203Z,9.80
2019-04-11T00:23:10.104Z,10.20
2019-04-11T00:25:39.914Z,9.80
2019-04-11T00:28:09.921Z,9.70
2019-04-11T00:30:39.912Z,10.20
2019-04-11T00:33:09.839Z,10.20
2019-04-11T00:35:39.770Z,9.90
2019-04-11T00:38:09.711Z,10.10
2019-04-11T00:40:39.590Z,10.20
2019-04-11T00:43:09.397Z,9.90
2019-04-11T00:45:38.346Z,9.80
2019-04-11T00:48:07.038Z,10.00
2019-04-11T00:50:35.713Z,9.80
2019-04-11T00:53:05.497Z,9.80
2019-04-11T00:55:35.524Z,9.90
2019-04-11T00:58:06.141Z,9.90
2019-04-11T01:00:35.494Z,9.70
2019-04-11T01:03:06.489Z,9.90
2019-04-11T01:05:35.361Z,9.80
2019-04-11T01:08:07.304Z,9.60
2019-04-11T01:10:36.558Z,9.70
2019-04-11T01:13:05.222Z,9.60
2019-04-11T01:15:33.899Z,9.60
2019-04-11T01:18:03.630Z,9.20
2019-04-11T01:20:32.518Z,9.50
2019-04-11T01:23:01.177Z,9.10
2019-04-11T01:25:30.687Z,9.20
2019-04-11T01:28:00.491Z,9.00
2019-04-11T01:30:33.309Z,9.10
2019-04-11T01:33:02.489Z,9.20
2019-04-11T01:35:31.654Z,8.90
2019-04-11T01:38:00.357Z,9.20
2019-04-11T01:40:29.794Z,8.90
2019-04-11T01:42:59.630Z,8.90
2019-04-11T01:45:29.532Z,8.90
2019-04-11T01:48:03.606Z,8.80
2019-04-11T01:50:33.217Z,8.50
2019-04-11T01:53:02.623Z,8.60
2019-04-11T01:55:32.333Z,8.40
2019-04-11T01:58:02.552Z,8.70
2019-04-11T02:00:44.471Z,8.50
2019-04-11T02:03:14.979Z,8.30
2019-04-11T02:05:43.872Z,8.60
2019-04-11T02:08:13.293Z,8.20
2019-04-11T02:10:43.166Z,8.30
2019-04-11T02:13:12.274Z,8.40
2019-04-11T02:15:40.933Z,8.20
2019-04-11T02:18:09.623Z,8.20
2019-04-11T02:20:39.003Z,8.40
2019-04-11T02:23:15.446Z,8.40
2019-04-11T02:25:46.968Z,8.50
2019-04-11T02:28:17.066Z,8.40
2019-04-11T02:30:51.301Z,8.40
2019-04-11T02:33:21.767Z,8.40
2019-04-11T02:35:51.870Z,8.50
2019-04-11T02:38:21.486Z,8.20
2019-04-11T02:40:52.574Z,8.00
2019-04-11T02:43:22.967Z,8.20
2019-04-11T02:46:04.564Z,8.10
2019-04-11T02:48:22.691Z,8.10
2019-04-11T02:50:51.612Z,8.20
2019-04-11T02:53:21.323Z,8.20
2019-04-11T02:55:52.094Z,8.20
2019-04-11T02:58:22.868Z,8.10
2019-04-11T03:00:53.662Z,8.00
2019-04-11T03:03:23.261Z,8.20
2019-04-11T03:05:53.370Z,8.10
2019-04-11T03:08:24.030Z,7.90
2019-04-11T03:10:53.571Z,8.10
2019-04-11T03:13:23.305Z,7.80
2019-04-11T03:16:06.954Z,7.90
2019-04-11T03:18:40.651Z,7.90
2019-04-11T03:20:57.647Z,8.00
2019-04-11T03:23:25.615Z,7.90
2019-04-11T03:25:56.650Z,7.90
2019-04-11T03:28:30.167Z,7.80
2019-04-11T03:31:26.303Z,7.60
2019-04-11T03:38:46.692Z,7.90
2019-04-11T03:41:17.356Z,7.90
2019-04-11T03:43:41.893Z,7.80
2019-04-11T03:46:19.451Z,7.90
2019-04-11T03:48:43.676Z,8.10
2019-04-11T03:51:02.430Z,7.70
2019-04-11T03:53:34.112Z,7.80
2019-04-11T03:56:03.876Z,8.10
2019-04-11T03:58:33.845Z,7.90
2019-04-11T04:01:05.546Z,7.90
2019-04-11T04:03:34.202Z,7.70
2019-04-11T04:06:04.434Z,7.70
2019-04-11T04:08:34.232Z,7.80
2019-04-11T04:11:06.080Z,7.80
2019-04-11T04:13:38.742Z,7.40
2019-04-11T04:16:26.050Z,7.80
2019-04-11T04:18:54.240Z,7.80
2019-04-11T04:21:40.757Z,7.80
2019-04-11T04:24:32.120Z,7.70
2019-04-11T04:27:01.558Z,7.80
2019-04-11T04:29:32.084Z,7.70
2019-04-11T04:32:02.611Z,7.60
2019-04-11T04:34:31.689Z,7.60
2019-04-11T04:37:00.513Z,7.70
2019-04-11T04:39:29.934Z,7.50
2019-04-11T04:42:08.336Z,7.50
2019-04-11T04:44:31.615Z,7.60
2019-04-11T04:47:15.603Z,7.50
2019-04-11T04:49:39.277Z,7.50
2019-04-11T04:52:13.702Z,7.40
2019-04-11T04:54:41.002Z,7.50
2019-04-11T04:57:12.937Z,7.50
2019-04-11T04:59:42.341Z,7.50
2019-04-11T05:02:12.679Z,7.50
2019-04-11T05:04:41.374Z,7.50
2019-04-11T05:07:11.628Z,7.40
2019-04-11T05:09:40.644Z,7.30
2019-04-11T05:12:09.939Z,7.40
2019-04-11T05:14:39.368Z,7.60
2019-04-11T05:17:08.811Z,7.40
2019-04-11T05:19:38.352Z,7.80
2019-04-11T05:22:08.468Z,7.50
2019-04-11T05:24:37.347Z,7.30
2019-04-11T05:27:06.333Z,7.60
2019-04-11T05:29:35.589Z,7.80
2019-04-11T05:32:05.738Z,7.60
2019-04-11T05:34:35.212Z,7.30
2019-04-11T05:37:11.037Z,7.70
2019-04-11T05:39:46.245Z,7.30
2019-04-11T05:42:17.709Z,7.30
2019-04-11T05:44:45.394Z,7.30
2019-04-11T05:47:18.182Z,7.40
2019-04-11T05:49:46.655Z,7.20
2019-04-11T05:52:15.811Z,7.20
2019-04-11T05:54:49.791Z,7.30
2019-04-11T05:57:23.726Z,7.30
2019-04-11T05:59:53.102Z,7.00
2019-04-11T06:02:27.134Z,7.00
2019-04-11T06:04:57.775Z,7.50
2019-04-11T06:07:35.014Z,7.30
2019-04-11T06:10:14.680Z,7.60
2019-04-11T06:12:45.528Z,7.50
2019-04-11T06:15:16.047Z,7.50
2019-04-11T06:17:48.111Z,7.50
2019-04-11T06:20:27.478Z,7.80
2019-04-11T06:22:58.267Z,7.60
2019-04-11T06:25:40.230Z,7.90
2019-04-11T06:28:12.404Z,7.90
2019-04-11T06:30:52.663Z,8.00
2019-04-11T06:33:23.262Z,8.00
2019-04-11T06:35:56.733Z,8.00
2019-04-11T06:38:30.335Z,8.20
2019-04-11T06:41:06.417Z,8.10
2019-04-11T06:43:40.392Z,8.10
2019-04-11T06:46:29.302Z,8.00
2019-04-11T06:49:09.653Z,8.10
2019-04-11T06:51:40.206Z,7.70
2019-04-11T06:54:19.226Z,8.00
2019-04-11T06:56:52.212Z,7.80
2019-04-11T06:59:28.093Z,7.70
2019-04-11T07:02:08.011Z,7.90
2019-04-11T07:04:33.653Z,8.00
2019-04-11T07:07:04.528Z,8.10
2019-04-11T07:09:51.397Z,8.00
2019-04-11T07:12:30.790Z,8.30
2019-04-11T07:15:10.299Z,8.10
2019-04-11T07:17:56.753Z,8.40
2019-04-11T07:20:45.791Z,8.40
2019-04-11T07:23:32.978Z,8.50
2019-04-11T07:26:06.170Z,8.70
2019-04-11T07:28:36.580Z,8.90
2019-04-11T07:31:23.386Z,8.40
2019-04-11T07:33:54.032Z,8.80
2019-04-11T07:36:40.782Z,8.80
2019-04-11T07:39:12.677Z,8.70
2019-04-11T07:41:45.460Z,8.70
2019-04-11T07:44:21.800Z,8.70
2019-04-11T07:47:17.203Z,8.80
2019-04-11T07:49:43.529Z,8.90
2019-04-11T07:52:25.574Z,9.20
2019-04-11T07:54:55.969Z,9.20
2019-04-11T07:57:41.243Z,9.30
2019-04-11T08:00:36.705Z,9.10
2019-04-11T08:02:59.740Z,9.50
2019-04-11T08:05:33.019Z,9.10
2019-04-11T08:08:19.274Z,9.30
2019-04-11T08:10:52.601Z,9.50
2019-04-11T08:13:26.308Z,9.50
2019-04-11T08:16:06.393Z,9.50
2019-04-11T08:18:43.177Z,9.30
2019-04-11T08:21:26.217Z,9.60
2019-04-11T08:24:02.719Z,9.60
2019-04-11T08:26:33.946Z,9.50
2019-04-11T08:29:09.246Z,9.50
2019-04-11T08:31:36.123Z,9.40
2019-04-11T08:34:05.124Z,9.70
2019-04-11T08:36:38.136Z,9.90
2019-04-11T08:39:08.964Z,9.90
2019-04-11T08:41:39.937Z,10.00
2019-04-11T08:44:09.817Z,10.00
2019-04-11T08:46:40.273Z,9.90
2019-04-11T08:49:10.558Z,9.80
2019-04-11T08:51:39.474Z,10.00
2019-04-11T08:54:13.260Z,10.30
2019-04-11T08:56:43.546Z,10.10
2019-04-11T08:59:35.956Z,10.20
2019-04-11T09:02:06.699Z,10.20
2019-04-11T09:04:48.930Z,10.50
2019-04-11T09:07:31.763Z,10.30
2019-04-11T09:10:18.312Z,10.40
2019-04-11T09:13:04.779Z,10.20
2019-04-11T09:15:51.638Z,10.20
2019-04-11T09:18:20.367Z,10.20
2019-04-11T09:21:05.424Z,10.30
2019-04-11T09:23:35.778Z,10.40
2019-04-11T09:26:23.575Z,10.50
2019-04-11T09:28:53.557Z,10.80
2019-04-11T09:31:41.697Z,10.90
2019-04-11T09:34:21.792Z,10.80
2019-04-11T09:36:53.317Z,11.10
2019-04-11T09:39:23.882Z,10.70
2019-04-11T09:42:11.789Z,10.90
2019-04-11T09:44:49.102Z,10.80
2019-04-11T09:47:28.405Z,11.10
2019-04-11T09:50:02.372Z,11.10
2019-04-11T09:52:47.605Z,11.20
2019-04-11T09:55:33.200Z,10.90
2019-04-11T09:58:02.935Z,11.20
2019-04-11T10:00:48.377Z,11.20
2019-04-11T10:03:25.617Z,11.40
2019-04-11T10:06:14.253Z,11.30
2019-04-11T10:08:44.407Z,11.20
2019-04-11T10:11:26.103Z,11.40
2019-04-11T10:13:57.595Z,11.10
2019-04-11T10:16:28.410Z,11.00
2019-04-11T10:19:15.779Z,11.10
2019-04-11T10:22:00.996Z,11.50
2019-04-11T10:24:50.453Z,11.60
2019-04-11T10:27:32.981Z,11.40
2019-04-11T10:30:09.291Z,11.50
2019-04-11T10:32:39.541Z,11.60
2019-04-11T10:35:17.616Z,11.70
2019-04-11T10:37:47.677Z,11.80
2019-04-11T10:40:21.162Z,12.10
2019-04-11T10:42:51.791Z,11.80
2019-04-11T10:45:23.174Z,12.20
2019-04-11T10:47:51.840Z,12.20
2019-04-11T10:50:40.315Z,12.40
2019-04-11T10:53:09.114Z,12.50
2019-04-11T10:55:42.004Z,12.10
2019-04-11T10:58:12.944Z,12.30
2019-04-11T11:00:47.344Z,12.00
2019-04-11T11:03:27.437Z,12.30
2019-04-11T11:06:01.665Z,12.50
2019-04-11T11:08:41.703Z,12.70
2019-04-11T11:11:14.820Z,12.80
2019-04-11T11:14:00.485Z,12.60
2019-04-11T11:16:32.563Z,13.00
2019-04-11T11:19:27.490Z,13.00
2019-04-11T11:21:35.259Z,12.70
2019-04-11T11:24:09.258Z,13.20
2019-04-11T11:26:39.019Z,12.90
2019-04-11T11:29:13.448Z,13.10
2019-04-11T11:31:47.524Z,13.00
2019-04-11T11:34:24.890Z,13.00
2019-04-11T11:36:56.731Z,13.20
2019-04-11T11:39:33.478Z,13.30
2019-04-11T11:42:10.356Z,13.20
2019-04-11T11:44:43.213Z,12.80
2019-04-11T11:47:23.668Z,12.70
2019-04-11T11:50:00.165Z,13.00
2019-04-11T11:52:42.819Z,12.90
2019-04-11T11:55:14.048Z,13.10
2019-04-11T11:57:44.865Z,13.10
2019-04-11T12:00:16.595Z,13.10
2019-04-11T12:02:51.871Z,12.80
2019-04-11T12:05:26.811Z,13.00
2019-04-11T12:08:00.574Z,13.20
2019-04-11T12:10:32.532Z,13.00
2019-04-11T12:13:22.062Z,12.90
2019-04-11T12:15:53.248Z,13.00
2019-04-11T12:18:26.821Z,12.80
2019-04-11T12:21:03.333Z,12.50
2019-04-11T12:23:46.292Z,12.50
2019-04-11T12:26:10.964Z,12.70
2019-04-11T12:28:49.903Z,13.00
2019-04-11T12:31:19.701Z,13.00
2019-04-11T12:34:12.405Z,13.10
2019-04-11T12:36:44.682Z,13.30
2019-04-11T12:39:14.794Z,13.00
2019-04-11T12:41:54.201Z,13.20
2019-04-11T12:44:32.754Z,13.10
2019-04-11T12:47:07.850Z,13.10
2019-04-11T12:49:52.799Z,12.70
2019-04-11T12:52:36.824Z,12.70
2019-04-11T12:55:10.279Z,13.00
2019-04-11T12:57:56.628Z,12.90
2019-04-11T13:00:38.912Z,13.10
2019-04-11T13:03:09.284Z,13.20
2019-04-11T13:05:45.433Z,13.30
2019-04-11T13:08:30.814Z,13.40
2019-04-11T13:11:00.023Z,13.10
2019-04-11T13:13:42.153Z,13.00
2019-04-11T13:16:12.943Z,12.90
2019-04-11T13:19:00.275Z,13.00
2019-04-11T13:21:30.579Z,12.90
2019-04-11T13:24:06.563Z,13.30
2019-04-11T13:26:48.882Z,13.40
2019-04-11T13:29:21.642Z,13.70
2019-04-11T13:31:54.915Z,13.70
2019-04-11T13:34:25.201Z,13.90
2019-04-11T13:36:57.877Z,13.90
2019-04-11T13:39:27.169Z,13.70
2019-04-11T13:42:09.414Z,13.90
2019-04-11T13:44:39.535Z,13.90
2019-04-11T13:47:12.257Z,13.80
2019-04-11T13:49:42.693Z,13.90
2019-04-11T13:52:15.408Z,13.90
2019-04-11T13:55:02.186Z,13.80
2019-04-11T13:57:38.637Z,13.70
2019-04-11T14:00:26.032Z,13.60
2019-04-11T14:03:07.940Z,13.60
2019-04-11T14:05:42.941Z,13.70
2019-04-11T14:08:13.203Z,13.80
2019-04-11T14:10:46.747Z,13.70
2019-04-11T14:13:15.545Z,13.40
2019-04-11T14:15:48.291Z,13.40
2019-04-11T14:18:21.167Z,13.60
2019-04-11T14:21:00.160Z,13.40
2019-04-11T14:23:30.490Z,13.90
2019-04-11T14:26:09.880Z,13.70
2019-04-11T14:28:42.795Z,13.60
2019-04-11T14:31:29.820Z,13.60
2019-04-11T14:34:08.882Z,13.50
2019-04-11T14:36:41.892Z,13.70
2019-04-11T14:39:12.986Z,13.80
2019-04-11T14:42:01.472Z,13.60
2019-04-11T14:44:34.471Z,13.80
2019-04-11T14:47:06.804Z,13.60
2019-04-11T14:49:35.661Z,13.60
2019-04-11T14:52:17.758Z,13.60
2019-04-11T14:54:48.847Z,13.70
2019-04-11T14:57:23.285Z,13.90
2019-04-11T15:00:01.363Z,13.40
2019-04-11T15:02:43.538Z,13.60
2019-04-11T15:05:14.432Z,13.50
2019-04-11T15:07:43.771Z,13.50
2019-04-11T15:10:17.064Z,13.20
2019-04-11T15:12:48.088Z,13.10
2019-04-11T15:15:34.236Z,13.40
2019-04-11T15:18:04.555Z,13.40
2019-04-11T15:20:54.967Z,13.50
2019-04-11T15:23:30.642Z,13.40
2019-04-11T15:26:03.548Z,13.40
2019-04-11T15:28:38.524Z,13.20
2019-04-11T15:31:11.619Z,13.50
2019-04-11T15:33:58.259Z,13.50
2019-04-11T15:36:28.647Z,13.60
2019-04-11T15:39:15.114Z,13.50
2019-04-11T15:41:45.603Z,13.60
2019-04-11T15:44:18.695Z,13.50
2019-04-11T15:46:48.417Z,13.50
2019-04-11T15:49:34.009Z,13.50
2019-04-11T15:52:06.388Z,13.30
2019-04-11T15:54:54.376Z,13.10
2019-04-11T15:57:26.817Z,13.30
2019-04-11T16:00:14.480Z,13.30
2019-04-11T16:02:47.547Z,13.10
2019-04-11T16:05:32.851Z,12.90
2019-04-11T16:08:39.130Z,13.30
2019-04-11T16:11:12.162Z,13.10
2019-04-11T16:14:02.976Z,13.30
2019-04-11T16:16:37.218Z,13.30
2019-04-11T16:19:09.975Z,13.40
2019-04-11T16:21:55.382Z,13.20
2019-04-11T16:24:37.449Z,13.30
2019-04-11T16:27:23.958Z,13.30
2019-04-11T16:29:54.307Z,13.30
2019-04-11T16:32:23.784Z,13.10
2019-04-11T16:35:09.064Z,13.20
2019-04-11T16:37:38.351Z,13.20
2019-04-11T16:40:25.170Z,13.40
2019-04-11T16:42:55.496Z,13.00
2019-04-11T16:45:41.745Z,12.80
2019-04-11T16:48:11.217Z,12.80
2019-04-11T16:50:41.253Z,12.70
2019-04-11T16:53:11.537Z,12.70
2019-04-11T16:55:43.152Z,12.80
2019-04-11T16:58:15.108Z,12.60
2019-04-11T17:00:41.463Z,12.50
2019-04-11T17:03:10.141Z,12.60
2019-04-11T17:05:40.465Z,12.50
2019-04-11T17:08:16.539Z,12.70
2019-04-11T17:10:58.949Z,12.60
2019-04-11T17:13:32.005Z,12.60
2019-04-11T17:16:00.615Z,12.40
2019-04-11T17:18:29.449Z,12.40
2019-04-11T17:20:58.152Z,12.30
2019-04-11T17:23:26.891Z,12.10
2019-04-11T17:25:55.659Z,12.30
2019-04-11T17:28:24.627Z,12.20
2019-04-11T17:30:55.789Z,12.20
2019-04-11T17:33:27.709Z,12.10
2019-04-11T17:35:54.344Z,12.20
2019-04-11T17:38:24.314Z,12.20
2019-04-11T17:40:53.021Z,12.30
2019-04-11T17:43:21.729Z,12.10
2019-04-11T17:45:50.532Z,12.20
2019-04-11T17:48:19.407Z,12.40
2019-04-11T17:50:48.132Z,12.20
2019-04-11T17:53:17.084Z,11.90
2019-04-11T17:55:45.771Z,12.00
2019-04-11T17:58:14.486Z,11.80
2019-04-11T18:00:45.228Z,12.10
2019-04-11T18:03:14.011Z,12.00
2019-04-11T18:05:46.650Z,12.00
2019-04-11T18:08:13.129Z,11.60
2019-04-11T18:10:41.818Z,11.80
2019-04-11T18:13:10.611Z,11.70
2019-04-11T18:15:39.486Z,11.60
2019-04-11T18:18:08.212Z,11.70
2019-04-11T18:20:37.555Z,11.90
2019-04-11T18:23:06.575Z,11.70
2019-04-11T18:25:35.261Z,11.70
2019-04-11T18:28:03.986Z,11.70
2019-04-11T18:30:32.670Z,11.70
2019-04-11T18:33:01.381Z,11.60
2019-04-11T18:35:31.943Z,11.50
2019-04-11T18:38:02.070Z,11.60
2019-04-11T18:40:30.945Z,11.40
2019-04-11T18:42:59.670Z,11.80
2019-04-11T18:45:28.367Z,11.70
2019-04-11T18:47:57.080Z,11.40
2019-04-11T18:50:25.747Z,11.30
2019-04-11T18:52:54.428Z,11.30
2019-04-11T18:55:23.201Z,11.30
2019-04-11T18:57:52.009Z,11.50
2019-04-11T19:00:22.305Z,11.40
2019-04-11T19:02:51.708Z,11.50
2019-04-11T19:05:28.690Z,11.40
2019-04-11T19:07:51.115Z,11.60
2019-04-11T19:10:19.962Z,11.70
2019-04-11T19:12:48.780Z,11.50
2019-04-11T19:15:17.762Z,11.50
2019-04-11T19:17:47.175Z,11.40
2019-04-11T19:20:18.797Z,11.50
2019-04-11T19:22:47.187Z,11.50
2019-04-11T19:25:35.251Z,11.30
2019-04-11T19:28:03.972Z,11.50
2019-04-11T19:30:53.965Z,11.30
2019-04-11T19:33:22.400Z,11.00
2019-04-11T19:35:51.425Z,11.20
2019-04-11T19:38:24.985Z,10.70
2019-04-11T19:40:55.596Z,10.90
2019-04-11T19:43:24.522Z,11.10
2019-04-11T19:45:53.217Z,10.90
2019-04-11T19:48:22.678Z,11.10
2019-04-11T19:50:52.330Z,11.20
2019-04-11T19:53:21.038Z,10.90
2019-04-11T19:55:52.425Z,10.80
2019-04-11T19:58:25.456Z,10.70
2019-04-11T20:00:54.316Z,10.80
2019-04-11T20:03:24.175Z,10.70
2019-04-11T20:05:53.626Z,10.90
2019-04-11T20:08:22.374Z,10.60
2019-04-11T20:10:52.457Z,10.50
2019-04-11T20:13:21.158Z,10.70
2019-04-11T20:15:50.652Z,10.80
2019-04-11T20:18:25.517Z,10.80
2019-04-11T20:20:54.358Z,10.70
2019-04-11T20:23:23.355Z,10.60
2019-04-11T20:25:52.272Z,10.80
2019-04-11T20:28:20.980Z,10.90
2019-04-11T20:30:51.187Z,10.50
2019-04-11T20:33:26.957Z,10.60
2019-04-11T20:35:50.762Z,10.40
2019-04-11T20:38:19.611Z,10.60
2019-04-11T20:40:52.157Z,10.70
2019-04-11T20:43:38.180Z,10.50
2019-04-11T20:46:09.103Z,10.40
2019-04-11T20:48:39.128Z,10.00
2019-04-11T20:51:07.796Z,10.00
2019-04-11T20:53:37.481Z,10.20
2019-04-11T20:56:09.737Z,10.00
2019-04-11T20:58:39.775Z,10.10
2019-04-11T21:01:08.152Z,10.10
2019-04-11T21:03:36.870Z,10.00
2019-04-11T21:06:05.542Z,10.10
2019-04-11T21:08:36.637Z,9.90
2019-04-11T21:11:05.296Z,9.90
2019-04-11T21:13:38.117Z,9.60
2019-04-11T21:16:04.516Z,9.70
2019-04-11T21:18:33.231Z,9.80
2019-04-11T21:21:01.918Z,9.80
2019-04-11T21:23:30.628Z,9.60
2019-04-11T21:25:59.688Z,9.60
2019-04-11T21:28:30.202Z,9.80
2019-04-11T21:31:00.156Z,9.80
2019-04-11T21:33:29.409Z,9.80
2019-04-11T21:35:58.116Z,9.70
2019-04-11T21:38:28.131Z,9.70
2019-04-11T21:40:57.388Z,9.80
2019-04-11T21:43:26.113Z,9.50
2019-04-11T21:45:54.789Z,9.50
2019-04-11T21:48:23.892Z,9.80
2019-04-11T21:50:52.559Z,9.70
2019-04-11T21:53:21.313Z,9.70
2019-04-11T21:55:50.079Z,9.70
2019-04-11T21:58:20.147Z,9.90
2019-04-11T22:00:54.352Z,9.90
2019-04-11T22:03:24.285Z,9.90
2019-04-11T22:05:59.660Z,9.70
2019-04-11T22:08:26.445Z,9.40
2019-04-11T22:10:55.339Z,9.50
2019-04-11T22:13:24.066Z,9.40
2019-04-11T22:15:52.720Z,9.40
2019-04-11T22:18:21.426Z,9.40
2019-04-11T22:20:50.122Z,9.40
2019-04-11T22:23:18.773Z,9.40
2019-04-11T22:25:47.474Z,9.40
2019-04-11T22:28:16.140Z,9.40
2019-04-11T22:30:44.808Z,9.60
2019-04-11T22:33:15.100Z,9.60
2019-04-11T22:35:43.772Z,9.60
2019-04-11T22:38:12.464Z,9.50
2019-04-11T22:40:41.358Z,9.30
2019-04-11T22:43:21.751Z,9.40
2019-04-11T22:45:40.433Z,9.60
2019-04-11T22:48:09.382Z,9.40
2019-04-11T22:50:40.661Z,9.10
2019-04-11T22:53:12.899Z,9.20
2019-04-11T22:55:41.294Z,9.20
2019-04-11T22:58:29.397Z,9.20
2019-04-11T23:00:58.102Z,9.30
2019-04-11T23:03:28.407Z,9.20
2019-04-11T23:05:57.100Z,9.20
2019-04-11T23:08:25.760Z,9.00
2019-04-11T23:10:56.115Z,9.30
2019-04-11T23:13:24.821Z,9.50
2019-04-11T23:15:53.472Z,9.00
2019-04-11T23:18:22.146Z,9.10
2019-04-11T23:20:50.851Z,9.40
2019-04-11T23:23:19.517Z,9.40
2019-04-11T23:25:48.193Z,9.20
2019-04-11T23:28:17.076Z,9.10
2019-04-11T23:30:49.571Z,9.30
2019-04-11T23:33:16.163Z,9.30
2019-04-11T23:35:44.829Z,9.10
2019-04-11T23:38:13.485Z,9.30
2019-04-11T23:40:42.201Z,9.50
2019-04-11T23:43:10.877Z,9.40
2019-04-11T23:45:39.642Z,9.50
2019-04-11T23:48:08.346Z,9.70
2019-04-11T23:50:37.000Z,9.70
2019-04-11T23:53:05.791Z,9.60
2019-04-11T23:55:34.454Z,9.50
2019-04-11T23:58:03.125Z,9.80
